sensor_id;sensor_type;location;lat;lon;timestamp;noise_LAeq;noise_LA_min;noise_LA_max;noise_LA01;noise_LA95
73663;Laerm;61956;52.540;13.382;2023-03-01T00:02:22;42.03;38.17;54.68;;
73663;Laerm;61956;52.540;13.382;2023-03-01T00:04:51;42.42;39.03;51.16;;
73663;Laerm;61956;52.540;13.382;2023-03-01T00:07:20;42.55;37.33;56.03;;
73663;Laerm;61956;52.540;13.382;2023-03-01T00:09:49;42.09;38.39;55.37;;
73663;Laerm;61956;52.540;13.382;2023-03-01T00:12:22;44.03;38.52;58.48;;
73663;Laerm;61956;52.540;13.382;2023-03-01T00:14:51;42.51;37.54;53.54;;
73663;Laerm;61956;52.540;13.382;2023-03-01T00:17:20;41.88;37.68;58.65;;
73663;Laerm;61956;52.540;13.382;2023-03-01T00:19:50;42.44;38.03;53.22;;
73663;Laerm;61956;52.540;13.382;2023-03-01T00:22:19;41.19;37.17;56.72;;
73663;Laerm;61956;52.540;13.382;2023-03-01T00:24:49;44.48;38.34;58.02;;
73663;Laerm;61956;52.540;13.382;2023-03-01T00:27:21;43.40;37.81;54.74;;
73663;Laerm;61956;52.540;13.382;2023-03-01T00:29:50;44.59;38.19;60.54;;
73663;Laerm;61956;52.540;13.382;2023-03-01T00:34:49;41.22;37.95;49.79;;
73663;Laerm;61956;52.540;13.382;2023-03-01T00:37:24;41.48;37.83;47.38;;
73663;Laerm;61956;52.540;13.382;2023-03-01T00:39:53;47.92;37.99;54.05;;
73663;Laerm;61956;52.540;13.382;2023-03-01T00:42:25;41.37;37.58;49.70;;
73663;Laerm;61956;52.540;13.382;2023-03-01T00:44:54;40.97;38.16;51.78;;
73663;Laerm;61956;52.540;13.382;2023-03-01T00:47:23;41.69;38.16;53.86;;
73663;Laerm;61956;52.540;13.382;2023-03-01T00:49:52;41.09;38.48;45.17;;
73663;Laerm;61956;52.540;13.382;2023-03-01T00:52:24;42.77;38.24;51.96;;
73663;Laerm;61956;52.540;13.382;2023-03-01T00:54:59;41.73;38.30;52.53;;
73663;Laerm;61956;52.540;13.382;2023-03-01T00:57:34;43.40;38.07;59.79;;
73663;Laerm;61956;52.540;13.382;2023-03-01T01:00:06;41.69;37.90;51.22;;
73663;Laerm;61956;52.540;13.382;2023-03-01T01:02:39;42.95;38.26;54.32;;
73663;Laerm;61956;52.540;13.382;2023-03-01T01:05:09;41.71;37.75;47.43;;
73663;Laerm;61956;52.540;13.382;2023-03-01T01:07:38;43.16;38.63;54.32;;
73663;Laerm;61956;52.540;13.382;2023-03-01T01:10:10;43.39;38.49;53.81;;
73663;Laerm;61956;52.540;13.382;2023-03-01T01:12:47;42.32;37.99;58.26;;
73663;Laerm;61956;52.540;13.382;2023-03-01T01:15:17;42.84;37.94;55.54;;
73663;Laerm;61956;52.540;13.382;2023-03-01T01:17:46;43.01;38.24;57.83;;
73663;Laerm;61956;52.540;13.382;2023-03-01T01:20:16;44.64;37.82;56.64;;
73663;Laerm;61956;52.540;13.382;2023-03-01T01:22:45;43.80;38.94;59.56;;
73663;Laerm;61956;52.540;13.382;2023-03-01T01:25:15;42.50;38.70;48.33;;
73663;Laerm;61956;52.540;13.382;2023-03-01T01:27:47;42.59;38.60;49.17;;
73663;Laerm;61956;52.540;13.382;2023-03-01T01:30:17;42.40;38.55;53.30;;
73663;Laerm;61956;52.540;13.382;2023-03-01T01:32:46;43.18;38.88;55.64;;
73663;Laerm;61956;52.540;13.382;2023-03-01T01:35:16;42.78;38.48;50.84;;
73663;Laerm;61956;52.540;13.382;2023-03-01T01:37:45;43.38;38.94;56.94;;
73663;Laerm;61956;52.540;13.382;2023-03-01T01:40:14;43.43;38.96;50.16;;
73663;Laerm;61956;52.540;13.382;2023-03-01T01:42:46;40.70;37.81;45.32;;
73663;Laerm;61956;52.540;13.382;2023-03-01T01:45:30;41.32;37.95;58.07;;
73663;Laerm;61956;52.540;13.382;2023-03-01T01:48:05;41.54;38.03;52.68;;
73663;Laerm;61956;52.540;13.382;2023-03-01T01:50:39;43.20;38.85;54.60;;
73663;Laerm;61956;52.540;13.382;2023-03-01T01:53:15;41.35;38.39;44.60;;
73663;Laerm;61956;52.540;13.382;2023-03-01T01:55:52;42.58;37.89;55.23;;
73663;Laerm;61956;52.540;13.382;2023-03-01T01:58:29;41.29;37.66;53.42;;
73663;Laerm;61956;52.540;13.382;2023-03-01T02:00:59;40.87;37.89;50.32;;
73663;Laerm;61956;52.540;13.382;2023-03-01T02:06:10;40.60;37.61;51.50;;
73663;Laerm;61956;52.540;13.382;2023-03-01T02:08:42;41.26;38.22;51.65;;
73663;Laerm;61956;52.540;13.382;2023-03-01T02:11:14;43.76;38.01;57.43;;
73663;Laerm;61956;52.540;13.382;2023-03-01T02:13:47;40.59;37.53;46.83;;
73663;Laerm;61956;52.540;13.382;2023-03-01T02:16:17;41.53;37.73;58.70;;
73663;Laerm;61956;52.540;13.382;2023-03-01T02:18:47;41.81;37.05;60.75;;
73663;Laerm;61956;52.540;13.382;2023-03-01T02:21:37;41.54;37.60;53.35;;
73663;Laerm;61956;52.540;13.382;2023-03-01T02:24:21;39.93;37.42;42.48;;
73663;Laerm;61956;52.540;13.382;2023-03-01T02:26:56;40.45;37.22;49.34;;
73663;Laerm;61956;52.540;13.382;2023-03-01T02:29:29;41.34;37.35;53.45;;
73663;Laerm;61956;52.540;13.382;2023-03-01T02:32:02;42.14;37.71;50.46;;
73663;Laerm;61956;52.540;13.382;2023-03-01T02:34:32;40.48;37.46;47.72;;
73663;Laerm;61956;52.540;13.382;2023-03-01T02:37:06;40.76;37.70;45.82;;
73663;Laerm;61956;52.540;13.382;2023-03-01T02:39:44;42.29;38.44;52.71;;
73663;Laerm;61956;52.540;13.382;2023-03-01T02:42:22;41.90;38.19;53.13;;
73663;Laerm;61956;52.540;13.382;2023-03-01T02:44:55;40.96;37.59;51.20;;
73663;Laerm;61956;52.540;13.382;2023-03-01T02:47:24;40.16;37.76;48.53;;
73663;Laerm;61956;52.540;13.382;2023-03-01T02:49:54;41.65;37.49;54.83;;
73663;Laerm;61956;52.540;13.382;2023-03-01T02:52:38;41.03;37.60;47.40;;
73663;Laerm;61956;52.540;13.382;2023-03-01T02:55:17;40.75;37.49;48.93;;
73663;Laerm;61956;52.540;13.382;2023-03-01T02:57:49;44.31;37.94;61.80;;
73663;Laerm;61956;52.540;13.382;2023-03-01T03:00:26;39.85;36.98;42.30;;
73663;Laerm;61956;52.540;13.382;2023-03-01T03:02:59;41.73;37.15;53.22;;
73663;Laerm;61956;52.540;13.382;2023-03-01T03:05:33;41.64;37.29;55.06;;
73663;Laerm;61956;52.540;13.382;2023-03-01T03:08:03;41.90;37.14;50.23;;
73663;Laerm;61956;52.540;13.382;2023-03-01T03:10:40;42.31;37.66;55.29;;
73663;Laerm;61956;52.540;13.382;2023-03-01T03:13:12;40.92;37.54;47.79;;
73663;Laerm;61956;52.540;13.382;2023-03-01T03:15:45;40.29;37.39;45.23;;
73663;Laerm;61956;52.540;13.382;2023-03-01T03:18:24;42.47;37.60;53.88;;
73663;Laerm;61956;52.540;13.382;2023-03-01T03:21:02;43.94;38.22;57.52;;
73663;Laerm;61956;52.540;13.382;2023-03-01T03:23:32;41.53;38.50;50.60;;
73663;Laerm;61956;52.540;13.382;2023-03-01T03:26:02;47.91;38.27;66.43;;
73663;Laerm;61956;52.540;13.382;2023-03-01T03:28:32;42.08;37.75;50.88;;
73663;Laerm;61956;52.540;13.382;2023-03-01T03:31:06;43.58;38.56;55.62;;
73663;Laerm;61956;52.540;13.382;2023-03-01T03:33:36;42.05;38.45;46.48;;
73663;Laerm;61956;52.540;13.382;2023-03-01T03:36:06;42.38;38.55;54.36;;
73663;Laerm;61956;52.540;13.382;2023-03-01T03:38:40;43.23;39.93;48.27;;
73663;Laerm;61956;52.540;13.382;2023-03-01T03:41:09;45.57;37.94;58.50;;
73663;Laerm;61956;52.540;13.382;2023-03-01T03:43:41;40.85;38.15;43.11;;
73663;Laerm;61956;52.540;13.382;2023-03-01T03:46:13;43.42;38.91;52.73;;
73663;Laerm;61956;52.540;13.382;2023-03-01T03:48:45;42.23;38.85;48.30;;
73663;Laerm;61956;52.540;13.382;2023-03-01T03:51:17;45.42;39.82;56.59;;
73663;Laerm;61956;52.540;13.382;2023-03-01T03:53:50;44.87;39.36;60.38;;
73663;Laerm;61956;52.540;13.382;2023-03-01T03:56:19;43.33;38.99;56.85;;
73663;Laerm;61956;52.540;13.382;2023-03-01T03:58:52;44.67;39.74;56.77;;
73663;Laerm;61956;52.540;13.382;2023-03-01T04:01:24;43.53;39.89;51.64;;
73663;Laerm;61956;52.540;13.382;2023-03-01T04:03:54;43.37;39.64;50.39;;
73663;Laerm;61956;52.540;13.382;2023-03-01T04:06:31;43.11;39.51;51.14;;
73663;Laerm;61956;52.540;13.382;2023-03-01T04:09:00;47.85;39.61;68.22;;
73663;Laerm;61956;52.540;13.382;2023-03-01T04:11:30;48.49;40.38;65.47;;
73663;Laerm;61956;52.540;13.382;2023-03-01T04:14:01;47.65;39.97;64.71;;
73663;Laerm;61956;52.540;13.382;2023-03-01T04:16:33;48.72;40.70;64.18;;
73663;Laerm;61956;52.540;13.382;2023-03-01T04:19:02;49.50;40.73;66.16;;
73663;Laerm;61956;52.540;13.382;2023-03-01T04:21:32;49.54;40.94;64.57;;
73663;Laerm;61956;52.540;13.382;2023-03-01T04:24:02;50.77;40.94;66.34;;
73663;Laerm;61956;52.540;13.382;2023-03-01T04:26:31;51.09;40.24;67.71;;
73663;Laerm;61956;52.540;13.382;2023-03-01T04:29:01;50.45;39.51;67.85;;
73663;Laerm;61956;52.540;13.382;2023-03-01T04:31:33;50.86;41.87;67.76;;
73663;Laerm;61956;52.540;13.382;2023-03-01T04:34:02;50.44;40.77;67.62;;
73663;Laerm;61956;52.540;13.382;2023-03-01T04:36:31;51.51;40.52;68.15;;
73663;Laerm;61956;52.540;13.382;2023-03-01T04:39:01;50.63;41.71;65.73;;
73663;Laerm;61956;52.540;13.382;2023-03-01T04:41:38;50.15;41.75;65.27;;
73663;Laerm;61956;52.540;13.382;2023-03-01T04:44:09;47.46;41.35;63.36;;
73663;Laerm;61956;52.540;13.382;2023-03-01T04:46:43;46.20;40.96;60.68;;
73663;Laerm;61956;52.540;13.382;2023-03-01T04:49:12;52.37;42.19;64.81;;
73663;Laerm;61956;52.540;13.382;2023-03-01T04:51:50;47.76;42.30;63.94;;
73663;Laerm;61956;52.540;13.382;2023-03-01T04:54:24;46.69;42.48;56.22;;
73663;Laerm;61956;52.540;13.382;2023-03-01T04:56:54;48.47;42.36;60.41;;
73663;Laerm;61956;52.540;13.382;2023-03-01T04:59:23;48.85;42.45;61.58;;
73663;Laerm;61956;52.540;13.382;2023-03-01T05:01:56;50.17;42.22;64.11;;
73663;Laerm;61956;52.540;13.382;2023-03-01T05:04:26;51.76;44.45;65.41;;
73663;Laerm;61956;52.540;13.382;2023-03-01T05:06:55;51.51;42.40;66.15;;
73663;Laerm;61956;52.540;13.382;2023-03-01T05:09:25;49.62;43.56;59.07;;
73663;Laerm;61956;52.540;13.382;2023-03-01T05:11:55;47.49;43.57;57.56;;
73663;Laerm;61956;52.540;13.382;2023-03-01T05:14:25;47.33;43.41;57.02;;
73663;Laerm;61956;52.540;13.382;2023-03-01T05:16:57;49.71;43.85;59.46;;
73663;Laerm;61956;52.540;13.382;2023-03-01T05:19:32;50.93;45.12;61.23;;
73663;Laerm;61956;52.540;13.382;2023-03-01T05:22:02;48.42;44.20;58.38;;
73663;Laerm;61956;52.540;13.382;2023-03-01T05:24:34;48.21;44.23;55.49;;
73663;Laerm;61956;52.540;13.382;2023-03-01T05:27:05;48.05;43.57;55.97;;
73663;Laerm;61956;52.540;13.382;2023-03-01T05:29:37;47.19;43.89;53.21;;
73663;Laerm;61956;52.540;13.382;2023-03-01T05:32:12;48.98;43.34;57.17;;
73663;Laerm;61956;52.540;13.382;2023-03-01T05:34:53;48.45;43.56;60.87;;
73663;Laerm;61956;52.540;13.382;2023-03-01T05:37:32;48.65;44.95;58.09;;
73663;Laerm;61956;52.540;13.382;2023-03-01T05:40:04;52.04;44.59;65.95;;
73663;Laerm;61956;52.540;13.382;2023-03-01T05:42:43;49.48;44.09;59.76;;
73663;Laerm;61956;52.540;13.382;2023-03-01T05:45:14;52.53;44.80;65.83;;
73663;Laerm;61956;52.540;13.382;2023-03-01T05:47:49;49.03;43.77;61.19;;
73663;Laerm;61956;52.540;13.382;2023-03-01T05:50:26;50.58;44.75;63.13;;
73663;Laerm;61956;52.540;13.382;2023-03-01T05:53:05;50.68;44.47;74.72;;
73663;Laerm;61956;52.540;13.382;2023-03-01T05:55:42;48.74;44.96;61.78;;
73663;Laerm;61956;52.540;13.382;2023-03-01T05:58:16;49.05;44.01;57.54;;
73663;Laerm;61956;52.540;13.382;2023-03-01T06:00:48;48.25;44.10;55.58;;
73663;Laerm;61956;52.540;13.382;2023-03-01T06:03:21;49.07;44.37;57.90;;
73663;Laerm;61956;52.540;13.382;2023-03-01T06:05:55;48.05;43.80;59.55;;
73663;Laerm;61956;52.540;13.382;2023-03-01T06:08:24;49.96;44.98;67.56;;
73663;Laerm;61956;52.540;13.382;2023-03-01T06:10:54;48.59;45.10;59.61;;
73663;Laerm;61956;52.540;13.382;2023-03-01T06:13:24;49.19;44.07;62.72;;
73663;Laerm;61956;52.540;13.382;2023-03-01T06:15:53;50.05;45.28;60.05;;
73663;Laerm;61956;52.540;13.382;2023-03-01T06:18:25;50.78;45.88;60.65;;
73663;Laerm;61956;52.540;13.382;2023-03-01T06:20:56;49.71;44.69;62.82;;
73663;Laerm;61956;52.540;13.382;2023-03-01T06:23:26;51.29;45.47;63.33;;
73663;Laerm;61956;52.540;13.382;2023-03-01T06:25:55;51.07;45.60;62.01;;
73663;Laerm;61956;52.540;13.382;2023-03-01T06:28:24;48.90;44.50;56.64;;
73663;Laerm;61956;52.540;13.382;2023-03-01T06:30:54;50.93;44.28;61.64;;
73663;Laerm;61956;52.540;13.382;2023-03-01T06:33:26;54.75;45.37;65.98;;
73663;Laerm;61956;52.540;13.382;2023-03-01T06:35:55;54.05;45.68;65.11;;
73663;Laerm;61956;52.540;13.382;2023-03-01T06:40:55;54.06;45.24;67.38;;
73663;Laerm;61956;52.540;13.382;2023-03-01T06:43:24;53.50;44.98;66.93;;
73663;Laerm;61956;52.540;13.382;2023-03-01T06:45:54;55.56;46.15;66.28;;
73663;Laerm;61956;52.540;13.382;2023-03-01T06:48:25;55.58;46.30;68.01;;
73663;Laerm;61956;52.540;13.382;2023-03-01T06:50:58;52.61;46.72;65.04;;
73663;Laerm;61956;52.540;13.382;2023-03-01T06:53:28;56.21;45.96;68.44;;
73663;Laerm;61956;52.540;13.382;2023-03-01T06:55:58;52.97;46.76;65.71;;
73663;Laerm;61956;52.540;13.382;2023-03-01T06:58:27;52.80;46.03;66.56;;
73663;Laerm;61956;52.540;13.382;2023-03-01T07:01:05;54.46;46.83;65.42;;
73663;Laerm;61956;52.540;13.382;2023-03-01T07:03:39;52.15;44.86;63.88;;
73663;Laerm;61956;52.540;13.382;2023-03-01T07:06:10;52.65;46.04;64.20;;
73663;Laerm;61956;52.540;13.382;2023-03-01T07:08:41;52.18;45.11;63.56;;
73663;Laerm;61956;52.540;13.382;2023-03-01T07:11:12;53.68;44.89;65.00;;
73663;Laerm;61956;52.540;13.382;2023-03-01T07:13:41;51.84;45.77;65.53;;
73663;Laerm;61956;52.540;13.382;2023-03-01T07:16:11;54.31;45.81;67.46;;
73663;Laerm;61956;52.540;13.382;2023-03-01T07:18:43;53.21;45.58;67.13;;
73663;Laerm;61956;52.540;13.382;2023-03-01T07:21:14;51.64;45.36;65.75;;
73663;Laerm;61956;52.540;13.382;2023-03-01T07:23:43;53.25;46.08;62.94;;
73663;Laerm;61956;52.540;13.382;2023-03-01T07:26:12;52.12;44.93;65.43;;
73663;Laerm;61956;52.540;13.382;2023-03-01T07:28:41;50.25;44.67;63.74;;
73663;Laerm;61956;52.540;13.382;2023-03-01T07:31:13;49.71;44.82;64.43;;
73663;Laerm;61956;52.540;13.382;2023-03-01T07:33:45;49.32;44.10;57.16;;
73663;Laerm;61956;52.540;13.382;2023-03-01T07:36:14;49.02;44.57;61.31;;
73663;Laerm;61956;52.540;13.382;2023-03-01T07:38:56;52.21;46.00;65.84;;
73663;Laerm;61956;52.540;13.382;2023-03-01T07:41:29;54.19;44.84;66.78;;
73663;Laerm;61956;52.540;13.382;2023-03-01T07:43:58;53.84;43.23;67.47;;
73663;Laerm;61956;52.540;13.382;2023-03-01T07:46:27;47.85;43.76;60.30;;
73663;Laerm;61956;52.540;13.382;2023-03-01T07:48:59;48.67;42.98;55.36;;
73663;Laerm;61956;52.540;13.382;2023-03-01T07:54:00;49.51;43.22;56.70;;
73663;Laerm;61956;52.540;13.382;2023-03-01T07:56:30;48.79;44.14;64.79;;
73663;Laerm;61956;52.540;13.382;2023-03-01T07:58:59;49.23;43.64;55.42;;
73663;Laerm;61956;52.540;13.382;2023-03-01T08:04:03;49.13;44.14;60.05;;
73663;Laerm;61956;52.540;13.382;2023-03-01T08:06:35;49.59;43.96;60.50;;
73663;Laerm;61956;52.540;13.382;2023-03-01T08:09:04;49.69;44.11;66.48;;
73663;Laerm;61956;52.540;13.382;2023-03-01T08:11:34;49.31;44.85;54.95;;
73663;Laerm;61956;52.540;13.382;2023-03-01T08:14:09;47.63;43.47;54.73;;
73663;Laerm;61956;52.540;13.382;2023-03-01T08:16:38;52.05;43.90;60.24;;
73663;Laerm;61956;52.540;13.382;2023-03-01T08:19:12;52.14;45.40;63.26;;
73663;Laerm;61956;52.540;13.382;2023-03-01T08:21:43;52.11;43.15;63.06;;
73663;Laerm;61956;52.540;13.382;2023-03-01T08:24:15;54.40;44.42;75.27;;
73663;Laerm;61956;52.540;13.382;2023-03-01T08:26:44;53.73;42.97;64.50;;
73663;Laerm;61956;52.540;13.382;2023-03-01T08:29:13;53.35;43.94;65.82;;
73663;Laerm;61956;52.540;13.382;2023-03-01T08:31:42;50.83;43.12;61.91;;
73663;Laerm;61956;52.540;13.382;2023-03-01T08:34:17;54.10;41.88;67.51;;
73663;Laerm;61956;52.540;13.382;2023-03-01T08:36:47;53.01;44.79;63.62;;
73663;Laerm;61956;52.540;13.382;2023-03-01T08:39:22;53.36;43.66;61.72;;
73663;Laerm;61956;52.540;13.382;2023-03-01T08:41:51;52.39;44.66;64.16;;
73663;Laerm;61956;52.540;13.382;2023-03-01T08:44:28;50.79;44.14;63.29;;
73663;Laerm;61956;52.540;13.382;2023-03-01T08:47:00;48.31;41.52;61.09;;
73663;Laerm;61956;52.540;13.382;2023-03-01T08:49:33;51.86;42.96;65.73;;
73663;Laerm;61956;52.540;13.382;2023-03-01T08:52:05;51.92;43.43;64.24;;
73663;Laerm;61956;52.540;13.382;2023-03-01T08:54:40;54.08;44.54;66.93;;
73663;Laerm;61956;52.540;13.382;2023-03-01T08:57:13;54.92;43.88;70.82;;
73663;Laerm;61956;52.540;13.382;2023-03-01T08:59:46;52.30;44.57;74.52;;
73663;Laerm;61956;52.540;13.382;2023-03-01T09:02:18;52.89;43.35;71.45;;
73663;Laerm;61956;52.540;13.382;2023-03-01T09:04:55;53.66;45.01;63.73;;
73663;Laerm;61956;52.540;13.382;2023-03-01T09:07:26;52.05;43.08;66.07;;
73663;Laerm;61956;52.540;13.382;2023-03-01T09:09:57;54.23;44.74;71.36;;
73663;Laerm;61956;52.540;13.382;2023-03-01T09:12:39;52.82;43.26;72.04;;
73663;Laerm;61956;52.540;13.382;2023-03-01T09:15:10;52.99;43.06;63.43;;
73663;Laerm;61956;52.540;13.382;2023-03-01T09:17:44;52.61;43.95;71.13;;
73663;Laerm;61956;52.540;13.382;2023-03-01T09:20:25;51.40;41.76;68.58;;
73663;Laerm;61956;52.540;13.382;2023-03-01T09:22:54;49.53;43.15;60.05;;
73663;Laerm;61956;52.540;13.382;2023-03-01T09:25:24;49.68;44.15;59.56;;
73663;Laerm;61956;52.540;13.382;2023-03-01T09:27:53;54.19;42.90;74.30;;
73663;Laerm;61956;52.540;13.382;2023-03-01T09:30:22;51.54;43.62;60.08;;
73663;Laerm;61956;52.540;13.382;2023-03-01T09:32:52;52.13;43.54;71.06;;
73663;Laerm;61956;52.540;13.382;2023-03-01T09:35:24;51.22;43.38;64.29;;
73663;Laerm;61956;52.540;13.382;2023-03-01T09:37:54;51.29;42.84;66.26;;
73663;Laerm;61956;52.540;13.382;2023-03-01T09:40:26;52.87;45.12;65.92;;
73663;Laerm;61956;52.540;13.382;2023-03-01T09:43:07;49.61;43.15;66.63;;
73663;Laerm;61956;52.540;13.382;2023-03-01T09:45:45;47.73;42.08;66.27;;
73663;Laerm;61956;52.540;13.382;2023-03-01T09:48:20;46.81;42.61;55.08;;
73663;Laerm;61956;52.540;13.382;2023-03-01T09:50:53;47.03;42.18;58.14;;
73663;Laerm;61956;52.540;13.382;2023-03-01T09:53:30;46.25;42.26;63.61;;
73663;Laerm;61956;52.540;13.382;2023-03-01T09:56:12;47.67;42.50;59.84;;
73663;Laerm;61956;52.540;13.382;2023-03-01T09:58:53;47.95;41.71;55.60;;
73663;Laerm;61956;52.540;13.382;2023-03-01T10:01:33;48.20;42.67;58.53;;
73663;Laerm;61956;52.540;13.382;2023-03-01T10:04:30;50.97;43.61;65.84;;
73663;Laerm;61956;52.540;13.382;2023-03-01T10:07:27;50.89;44.01;65.88;;
73663;Laerm;61956;52.540;13.382;2023-03-01T10:09:59;49.40;43.54;68.32;;
73663;Laerm;61956;52.540;13.382;2023-03-01T10:12:37;50.63;44.27;66.38;;
73663;Laerm;61956;52.540;13.382;2023-03-01T10:15:15;47.71;42.00;58.32;;
73663;Laerm;61956;52.540;13.382;2023-03-01T10:17:51;47.02;40.65;52.28;;
73663;Laerm;61956;52.540;13.382;2023-03-01T10:20:25;47.86;42.58;60.97;;
73663;Laerm;61956;52.540;13.382;2023-03-01T10:22:58;46.94;41.78;60.65;;
73663;Laerm;61956;52.540;13.382;2023-03-01T10:25:47;48.71;42.56;63.62;;
73663;Laerm;61956;52.540;13.382;2023-03-01T10:28:31;49.14;42.70;65.46;;
73663;Laerm;61956;52.540;13.382;2023-03-01T10:31:08;47.69;42.05;58.29;;
73663;Laerm;61956;52.540;13.382;2023-03-01T10:33:44;51.31;42.46;71.45;;
73663;Laerm;61956;52.540;13.382;2023-03-01T10:36:21;49.00;43.88;60.03;;
73663;Laerm;61956;52.540;13.382;2023-03-01T10:38:54;53.22;42.98;65.17;;
73663;Laerm;61956;52.540;13.382;2023-03-01T10:41:27;50.60;42.58;67.42;;
73663;Laerm;61956;52.540;13.382;2023-03-01T10:43:58;51.23;43.97;59.60;;
73663;Laerm;61956;52.540;13.382;2023-03-01T10:46:31;50.82;43.98;61.36;;
73663;Laerm;61956;52.540;13.382;2023-03-01T10:49:13;52.60;43.89;65.55;;
73663;Laerm;61956;52.540;13.382;2023-03-01T10:51:45;51.93;43.95;70.96;;
73663;Laerm;61956;52.540;13.382;2023-03-01T10:54:26;52.23;44.70;63.79;;
73663;Laerm;61956;52.540;13.382;2023-03-01T10:56:59;51.40;43.79;66.18;;
73663;Laerm;61956;52.540;13.382;2023-03-01T10:59:32;50.87;43.35;62.86;;
73663;Laerm;61956;52.540;13.382;2023-03-01T11:02:17;51.60;43.20;69.27;;
73663;Laerm;61956;52.540;13.382;2023-03-01T11:04:58;49.54;43.07;69.20;;
73663;Laerm;61956;52.540;13.382;2023-03-01T11:07:28;51.41;43.52;63.64;;
73663;Laerm;61956;52.540;13.382;2023-03-01T11:09:59;53.57;43.41;69.68;;
73663;Laerm;61956;52.540;13.382;2023-03-01T11:12:40;52.72;43.39;68.62;;
73663;Laerm;61956;52.540;13.382;2023-03-01T11:15:24;52.27;42.31;65.57;;
73663;Laerm;61956;52.540;13.382;2023-03-01T11:17:56;53.81;42.27;69.84;;
73663;Laerm;61956;52.540;13.382;2023-03-01T11:20:30;53.60;44.22;68.77;;
73663;Laerm;61956;52.540;13.382;2023-03-01T11:23:05;52.93;43.42;68.88;;
73663;Laerm;61956;52.540;13.382;2023-03-01T11:25:43;54.18;43.88;71.51;;
73663;Laerm;61956;52.540;13.382;2023-03-01T11:28:19;51.02;43.21;63.00;;
73663;Laerm;61956;52.540;13.382;2023-03-01T11:30:57;51.10;43.64;58.91;;
73663;Laerm;61956;52.540;13.382;2023-03-01T11:33:39;55.46;43.48;70.82;;
73663;Laerm;61956;52.540;13.382;2023-03-01T11:36:19;50.78;43.33;62.33;;
73663;Laerm;61956;52.540;13.382;2023-03-01T11:38:55;51.51;43.73;61.40;;
73663;Laerm;61956;52.540;13.382;2023-03-01T11:41:32;50.16;41.55;67.83;;
73663;Laerm;61956;52.540;13.382;2023-03-01T11:44:14;46.83;41.25;59.05;;
73663;Laerm;61956;52.540;13.382;2023-03-01T11:47:04;47.09;43.46;56.31;;
73663;Laerm;61956;52.540;13.382;2023-03-01T11:50:05;47.49;43.34;62.19;;
73663;Laerm;61956;52.540;13.382;2023-03-01T11:52:49;47.56;42.03;55.39;;
73663;Laerm;61956;52.540;13.382;2023-03-01T11:55:54;46.76;42.22;57.34;;
73663;Laerm;61956;52.540;13.382;2023-03-01T11:58:59;46.39;41.33;55.17;;
73663;Laerm;61956;52.540;13.382;2023-03-01T12:01:48;45.85;41.39;58.43;;
73663;Laerm;61956;52.540;13.382;2023-03-01T12:04:43;45.38;40.57;56.12;;
73663;Laerm;61956;52.540;13.382;2023-03-01T12:07:28;45.15;40.51;59.20;;
73663;Laerm;61956;52.540;13.382;2023-03-01T12:10:25;46.69;41.87;67.23;;
73663;Laerm;61956;52.540;13.382;2023-03-01T12:16:36;46.21;41.66;54.47;;
73663;Laerm;61956;52.540;13.382;2023-03-01T12:19:26;47.61;41.83;73.18;;
73663;Laerm;61956;52.540;13.382;2023-03-01T12:22:15;45.41;40.41;52.56;;
73663;Laerm;61956;52.540;13.382;2023-03-01T12:25:12;46.25;41.61;55.22;;
73663;Laerm;61956;52.540;13.382;2023-03-01T12:28:19;48.14;41.52;68.00;;
73663;Laerm;61956;52.540;13.382;2023-03-01T12:31:21;46.96;42.51;62.69;;
73663;Laerm;61956;52.540;13.382;2023-03-01T12:34:11;47.68;42.29;61.80;;
73663;Laerm;61956;52.540;13.382;2023-03-01T12:37:15;47.23;42.87;59.09;;
73663;Laerm;61956;52.540;13.382;2023-03-01T12:40:13;46.62;41.53;60.56;;
73663;Laerm;61956;52.540;13.382;2023-03-01T12:43:01;49.12;41.69;63.29;;
73663;Laerm;61956;52.540;13.382;2023-03-01T12:45:50;49.07;42.70;61.99;;
73663;Laerm;61956;52.540;13.382;2023-03-01T12:48:39;50.27;42.80;60.54;;
73663;Laerm;61956;52.540;13.382;2023-03-01T12:51:18;50.02;43.03;64.68;;
73663;Laerm;61956;52.540;13.382;2023-03-01T12:53:53;51.62;42.27;61.33;;
73663;Laerm;61956;52.540;13.382;2023-03-01T12:56:28;52.13;43.99;63.92;;
73663;Laerm;61956;52.540;13.382;2023-03-01T12:59:09;52.23;43.64;63.91;;
73663;Laerm;61956;52.540;13.382;2023-03-01T13:01:51;50.56;42.69;67.58;;
73663;Laerm;61956;52.540;13.382;2023-03-01T13:04:33;47.51;42.27;58.82;;
73663;Laerm;61956;52.540;13.382;2023-03-01T13:07:19;51.35;43.24;63.92;;
73663;Laerm;61956;52.540;13.382;2023-03-01T13:10:02;49.79;42.22;59.71;;
73663;Laerm;61956;52.540;13.382;2023-03-01T13:12:49;53.85;43.86;68.59;;
73663;Laerm;61956;52.540;13.382;2023-03-01T13:15:34;46.72;41.77;59.90;;
73663;Laerm;61956;52.540;13.382;2023-03-01T13:18:32;49.29;42.33;72.10;;
73663;Laerm;61956;52.540;13.382;2023-03-01T13:21:03;46.93;41.85;59.30;;
73663;Laerm;61956;52.540;13.382;2023-03-01T13:23:37;47.92;42.35;59.23;;
73663;Laerm;61956;52.540;13.382;2023-03-01T13:26:12;46.34;42.14;55.64;;
73663;Laerm;61956;52.540;13.382;2023-03-01T13:28:54;47.69;41.45;61.65;;
73663;Laerm;61956;52.540;13.382;2023-03-01T13:31:59;48.52;41.99;59.31;;
73663;Laerm;61956;52.540;13.382;2023-03-01T13:34:52;47.58;41.94;59.52;;
73663;Laerm;61956;52.540;13.382;2023-03-01T13:37:30;47.57;41.94;59.13;;
73663;Laerm;61956;52.540;13.382;2023-03-01T13:40:08;49.37;41.93;63.24;;
73663;Laerm;61956;52.540;13.382;2023-03-01T13:42:56;47.97;42.29;61.67;;
73663;Laerm;61956;52.540;13.382;2023-03-01T13:45:36;49.50;43.14;60.31;;
73663;Laerm;61956;52.540;13.382;2023-03-01T13:48:15;49.19;41.62;62.17;;
73663;Laerm;61956;52.540;13.382;2023-03-01T13:50:55;50.76;43.48;59.52;;
73663;Laerm;61956;52.540;13.382;2023-03-01T13:53:32;49.83;42.82;60.86;;
73663;Laerm;61956;52.540;13.382;2023-03-01T13:56:09;50.88;43.75;60.23;;
73663;Laerm;61956;52.540;13.382;2023-03-01T13:58:53;50.42;42.99;64.23;;
73663;Laerm;61956;52.540;13.382;2023-03-01T14:01:27;50.71;41.69;64.31;;
73663;Laerm;61956;52.540;13.382;2023-03-01T14:03:58;52.00;42.44;70.23;;
73663;Laerm;61956;52.540;13.382;2023-03-01T14:06:32;49.06;42.40;60.73;;
73663;Laerm;61956;52.540;13.382;2023-03-01T14:09:10;52.35;44.84;63.43;;
73663;Laerm;61956;52.540;13.382;2023-03-01T14:12:11;52.42;42.13;66.19;;
73663;Laerm;61956;52.540;13.382;2023-03-01T14:14:53;51.26;43.97;69.62;;
73663;Laerm;61956;52.540;13.382;2023-03-01T14:17:44;53.26;44.38;66.39;;
73663;Laerm;61956;52.540;13.382;2023-03-01T14:20:23;50.87;43.91;64.17;;
73663;Laerm;61956;52.540;13.382;2023-03-01T14:23:02;53.55;43.96;71.16;;
73663;Laerm;61956;52.540;13.382;2023-03-01T14:25:38;51.20;44.34;65.21;;
73663;Laerm;61956;52.540;13.382;2023-03-01T14:28:18;53.97;44.27;71.83;;
73663;Laerm;61956;52.540;13.382;2023-03-01T14:30:54;52.21;44.40;63.20;;
73663;Laerm;61956;52.540;13.382;2023-03-01T14:33:26;52.01;45.23;64.00;;